sensor_id;sensor_type;location;lat;lon;timestamp;temperature;humidity
4910;DHT22;2470;49.868;8.660;2022-11-14T00:00:08;8.10;99.90
4910;DHT22;2470;49.868;8.660;2022-11-14T00:02:34;8.00;99.90
4910;DHT22;2470;49.868;8.660;2022-11-14T00:05:00;7.90;99.90
4910;DHT22;2470;49.868;8.660;2022-11-14T00:07:29;7.90;99.90
4910;DHT22;2470;49.868;8.660;2022-11-14T00:09:54;7.90;99.90
4910;DHT22;2470;49.868;8.660;2022-11-14T00:12:20;7.90;99.90
4910;DHT22;2470;49.868;8.660;2022-11-14T00:14:45;7.90;99.90
4910;DHT22;2470;49.868;8.660;2022-11-14T00:17:11;7.90;99.90
4910;DHT22;2470;49.868;8.660;2022-11-14T00:19:37;8.00;99.90
4910;DHT22;2470;49.868;8.660;2022-11-14T00:22:02;7.90;99.90
4910;DHT22;2470;49.868;8.660;2022-11-14T00:24:28;7.90;99.90
4910;DHT22;2470;49.868;8.660;2022-11-14T00:26:54;7.80;99.90
4910;DHT22;2470;49.868;8.660;2022-11-14T00:29:19;7.60;99.90
4910;DHT22;2470;49.868;8.660;2022-11-14T00:31:45;7.60;99.90
4910;DHT22;2470;49.868;8.660;2022-11-14T00:34:10;7.60;99.90
4910;DHT22;2470;49.868;8.660;2022-11-14T00:36:36;7.50;99.90
4910;DHT22;2470;49.868;8.660;2022-11-14T00:39:02;7.60;99.90
4910;DHT22;2470;49.868;8.660;2022-11-14T00:41:28;7.60;99.90
4910;DHT22;2470;49.868;8.660;2022-11-14T00:43:53;7.60;99.90
4910;DHT22;2470;49.868;8.660;2022-11-14T00:46:19;7.60;99.90
4910;DHT22;2470;49.868;8.660;2022-11-14T00:48:44;7.60;99.90
4910;DHT22;2470;49.868;8.660;2022-11-14T00:51:10;7.60;99.90
4910;DHT22;2470;49.868;8.660;2022-11-14T00:53:37;7.70;99.90
4910;DHT22;2470;49.868;8.660;2022-11-14T00:56:03;7.70;99.90
4910;DHT22;2470;49.868;8.660;2022-11-14T00:58:29;7.70;99.90
4910;DHT22;2470;49.868;8.660;2022-11-14T01:00:54;7.70;99.90
4910;DHT22;2470;49.868;8.660;2022-11-14T01:03:20;7.70;99.90
4910;DHT22;2470;49.868;8.660;2022-11-14T01:05:48;7.60;99.90
4910;DHT22;2470;49.868;8.660;2022-11-14T01:08:16;7.60;99.90
4910;DHT22;2470;49.868;8.660;2022-11-14T01:10:48;7.50;99.90
4910;DHT22;2470;49.868;8.660;2022-11-14T01:13:15;7.50;99.90
4910;DHT22;2470;49.868;8.660;2022-11-14T01:15:43;7.60;99.90
4910;DHT22;2470;49.868;8.660;2022-11-14T01:18:10;7.60;99.90
4910;DHT22;2470;49.868;8.660;2022-11-14T01:20:44;7.70;99.90
4910;DHT22;2470;49.868;8.660;2022-11-14T01:23:12;7.70;99.90
4910;DHT22;2470;49.868;8.660;2022-11-14T01:25:39;7.70;99.90
4910;DHT22;2470;49.868;8.660;2022-11-14T01:28:13;7.80;99.90
4910;DHT22;2470;49.868;8.660;2022-11-14T01:30:39;7.80;99.90
4910;DHT22;2470;49.868;8.660;2022-11-14T01:33:05;7.70;99.90
4910;DHT22;2470;49.868;8.660;2022-11-14T01:35:32;7.70;99.90
4910;DHT22;2470;49.868;8.660;2022-11-14T01:37:58;7.60;99.90
4910;DHT22;2470;49.868;8.660;2022-11-14T01:40:24;7.50;99.90
4910;DHT22;2470;49.868;8.660;2022-11-14T01:51:35;7.20;99.90
4910;DHT22;2470;49.868;8.660;2022-11-14T01:54:06;7.20;99.90
4910;DHT22;2470;49.868;8.660;2022-11-14T01:56:35;7.20;99.90
4910;DHT22;2470;49.868;8.660;2022-11-14T01:59:07;7.20;99.90
4910;DHT22;2470;49.868;8.660;2022-11-14T02:01:36;7.20;99.90
4910;DHT22;2470;49.868;8.660;2022-11-14T02:04:04;7.30;99.90
4910;DHT22;2470;49.868;8.660;2022-11-14T02:06:30;7.20;99.90
4910;DHT22;2470;49.868;8.660;2022-11-14T02:08:59;7.10;99.90
4910;DHT22;2470;49.868;8.660;2022-11-14T02:11:29;7.10;99.90
4910;DHT22;2470;49.868;8.660;2022-11-14T02:13:55;7.10;99.90
4910;DHT22;2470;49.868;8.660;2022-11-14T02:16:21;7.10;99.90
4910;DHT22;2470;49.868;8.660;2022-11-14T02:18:46;7.10;99.90
4910;DHT22;2470;49.868;8.660;2022-11-14T02:21:12;7.00;99.90
4910;DHT22;2470;49.868;8.660;2022-11-14T02:23:37;7.00;99.90
4910;DHT22;2470;49.868;8.660;2022-11-14T02:26:03;7.00;99.90
4910;DHT22;2470;49.868;8.660;2022-11-14T02:28:29;7.00;99.90
4910;DHT22;2470;49.868;8.660;2022-11-14T02:30:54;7.00;99.90
4910;DHT22;2470;49.868;8.660;2022-11-14T02:33:20;7.00;99.90
4910;DHT22;2470;49.868;8.660;2022-11-14T02:35:45;7.00;99.90
4910;DHT22;2470;49.868;8.660;2022-11-14T02:38:11;7.00;99.90
4910;DHT22;2470;49.868;8.660;2022-11-14T02:40:36;7.00;99.90
4910;DHT22;2470;49.868;8.660;2022-11-14T02:43:02;7.00;99.90
4910;DHT22;2470;49.868;8.660;2022-11-14T02:45:27;7.00;99.90
4910;DHT22;2470;49.868;8.660;2022-11-14T02:47:53;6.90;99.90
4910;DHT22;2470;49.868;8.660;2022-11-14T02:50:18;6.90;99.90
4910;DHT22;2470;49.868;8.660;2022-11-14T02:52:44;7.00;99.90
4910;DHT22;2470;49.868;8.660;2022-11-14T02:55:10;7.00;99.90
4910;DHT22;2470;49.868;8.660;2022-11-14T02:57:35;6.90;99.90
4910;DHT22;2470;49.868;8.660;2022-11-14T03:00:02;6.90;99.90
4910;DHT22;2470;49.868;8.660;2022-11-14T03:02:28;6.90;99.90
4910;DHT22;2470;49.868;8.660;2022-11-14T03:04:53;6.90;99.90
4910;DHT22;2470;49.868;8.660;2022-11-14T03:07:19;6.90;99.90
4910;DHT22;2470;49.868;8.660;2022-11-14T03:09:44;6.90;99.90
4910;DHT22;2470;49.868;8.660;2022-11-14T03:12:10;7.00;99.90
4910;DHT22;2470;49.868;8.660;2022-11-14T03:14:36;7.00;99.90
4910;DHT22;2470;49.868;8.660;2022-11-14T03:17:01;7.00;99.90
4910;DHT22;2470;49.868;8.660;2022-11-14T03:19:27;7.00;99.90
4910;DHT22;2470;49.868;8.660;2022-11-14T03:21:52;7.10;99.90
4910;DHT22;2470;49.868;8.660;2022-11-14T03:24:18;7.10;99.90
4910;DHT22;2470;49.868;8.660;2022-11-14T03:26:44;7.20;99.90
4910;DHT22;2470;49.868;8.660;2022-11-14T03:29:09;7.20;99.90
4910;DHT22;2470;49.868;8.660;2022-11-14T03:31:35;7.20;99.90
4910;DHT22;2470;49.868;8.660;2022-11-14T03:34:00;7.30;99.90
4910;DHT22;2470;49.868;8.660;2022-11-14T03:36:26;7.30;99.90
4910;DHT22;2470;49.868;8.660;2022-11-14T03:38:51;7.30;99.90
4910;DHT22;2470;49.868;8.660;2022-11-14T03:41:17;7.30;99.90
4910;DHT22;2470;49.868;8.660;2022-11-14T03:43:42;7.30;99.90
4910;DHT22;2470;49.868;8.660;2022-11-14T03:46:08;7.40;99.90
4910;DHT22;2470;49.868;8.660;2022-11-14T03:48:33;7.40;99.90
4910;DHT22;2470;49.868;8.660;2022-11-14T03:50:59;7.40;99.90
4910;DHT22;2470;49.868;8.660;2022-11-14T03:53:25;7.40;99.90
4910;DHT22;2470;49.868;8.660;2022-11-14T03:55:51;7.50;99.90
4910;DHT22;2470;49.868;8.660;2022-11-14T03:58:17;7.50;99.90
4910;DHT22;2470;49.868;8.660;2022-11-14T04:00:42;7.50;99.90
4910;DHT22;2470;49.868;8.660;2022-11-14T04:03:08;7.60;99.90
4910;DHT22;2470;49.868;8.660;2022-11-14T04:05:45;7.60;99.90
4910;DHT22;2470;49.868;8.660;2022-11-14T04:08:11;7.60;99.90
4910;DHT22;2470;49.868;8.660;2022-11-14T04:10:37;7.60;99.90
4910;DHT22;2470;49.868;8.660;2022-11-14T04:13:03;7.60;99.90
4910;DHT22;2470;49.868;8.660;2022-11-14T04:15:29;7.60;99.90
4910;DHT22;2470;49.868;8.660;2022-11-14T04:17:55;7.70;99.90
4910;DHT22;2470;49.868;8.660;2022-11-14T04:20:20;7.70;99.90
4910;DHT22;2470;49.868;8.660;2022-11-14T04:22:46;7.70;99.90
4910;DHT22;2470;49.868;8.660;2022-11-14T04:25:11;7.70;99.90
4910;DHT22;2470;49.868;8.660;2022-11-14T04:27:37;7.70;99.90
4910;DHT22;2470;49.868;8.660;2022-11-14T04:30:03;7.80;99.90
4910;DHT22;2470;49.868;8.660;2022-11-14T04:32:29;7.80;99.90
4910;DHT22;2470;49.868;8.660;2022-11-14T04:34:55;7.80;99.90
4910;DHT22;2470;49.868;8.660;2022-11-14T04:37:20;7.80;99.90
4910;DHT22;2470;49.868;8.660;2022-11-14T04:39:46;7.90;99.90
4910;DHT22;2470;49.868;8.660;2022-11-14T04:42:11;7.90;99.90
4910;DHT22;2470;49.868;8.660;2022-11-14T04:44:37;8.00;99.90
4910;DHT22;2470;49.868;8.660;2022-11-14T04:47:02;8.00;99.90
4910;DHT22;2470;49.868;8.660;2022-11-14T04:49:28;8.00;99.90
4910;DHT22;2470;49.868;8.660;2022-11-14T04:51:54;8.00;99.90
4910;DHT22;2470;49.868;8.660;2022-11-14T04:54:19;8.10;99.90
4910;DHT22;2470;49.868;8.660;2022-11-14T04:56:45;8.10;99.90
4910;DHT22;2470;49.868;8.660;2022-11-14T04:59:11;8.10;99.90
4910;DHT22;2470;49.868;8.660;2022-11-14T05:01:36;8.10;99.90
4910;DHT22;2470;49.868;8.660;2022-11-14T05:04:02;8.10;99.90
4910;DHT22;2470;49.868;8.660;2022-11-14T05:06:27;8.10;99.90
4910;DHT22;2470;49.868;8.660;2022-11-14T05:08:53;8.10;99.90
4910;DHT22;2470;49.868;8.660;2022-11-14T05:11:19;8.10;99.90
4910;DHT22;2470;49.868;8.660;2022-11-14T05:13:45;8.20;99.90
4910;DHT22;2470;49.868;8.660;2022-11-14T05:16:11;8.20;99.90
4910;DHT22;2470;49.868;8.660;2022-11-14T05:18:37;8.20;99.90
4910;DHT22;2470;49.868;8.660;2022-11-14T05:21:03;8.20;99.90
4910;DHT22;2470;49.868;8.660;2022-11-14T05:23:29;8.30;99.90
4910;DHT22;2470;49.868;8.660;2022-11-14T05:26:02;8.30;99.90
4910;DHT22;2470;49.868;8.660;2022-11-14T05:28:29;8.30;99.90
4910;DHT22;2470;49.868;8.660;2022-11-14T05:31:12;8.20;99.90
4910;DHT22;2470;49.868;8.660;2022-11-14T05:33:39;8.20;99.90
4910;DHT22;2470;49.868;8.660;2022-11-14T05:36:07;8.20;99.90
4910;DHT22;2470;49.868;8.660;2022-11-14T05:38:33;8.20;99.90
4910;DHT22;2470;49.868;8.660;2022-11-14T05:41:11;8.20;99.90
4910;DHT22;2470;49.868;8.660;2022-11-14T05:43:37;8.20;99.90
4910;DHT22;2470;49.868;8.660;2022-11-14T05:46:05;8.20;99.90
4910;DHT22;2470;49.868;8.660;2022-11-14T05:48:31;8.20;99.90
4910;DHT22;2470;49.868;8.660;2022-11-14T05:50:59;8.20;99.90
4910;DHT22;2470;49.868;8.660;2022-11-14T05:53:25;8.20;99.90
4910;DHT22;2470;49.868;8.660;2022-11-14T05:55:51;8.20;99.90
4910;DHT22;2470;49.868;8.660;2022-11-14T05:58:17;8.20;99.90
4910;DHT22;2470;49.868;8.660;2022-11-14T06:00:43;8.20;99.90
4910;DHT22;2470;49.868;8.660;2022-11-14T06:03:08;8.20;99.90
4910;DHT22;2470;49.868;8.660;2022-11-14T06:05:35;8.20;99.90
4910;DHT22;2470;49.868;8.660;2022-11-14T06:08:02;8.30;99.90
4910;DHT22;2470;49.868;8.660;2022-11-14T06:10:27;8.30;99.90
4910;DHT22;2470;49.868;8.660;2022-11-14T06:12:53;8.40;99.90
4910;DHT22;2470;49.868;8.660;2022-11-14T06:15:18;8.40;99.90
4910;DHT22;2470;49.868;8.660;2022-11-14T06:17:44;8.40;99.90
4910;DHT22;2470;49.868;8.660;2022-11-14T06:20:10;8.40;99.90
4910;DHT22;2470;49.868;8.660;2022-11-14T06:22:38;8.40;99.90
4910;DHT22;2470;49.868;8.660;2022-11-14T06:25:04;8.40;99.90
4910;DHT22;2470;49.868;8.660;2022-11-14T06:27:30;8.40;99.90
4910;DHT22;2470;49.868;8.660;2022-11-14T06:29:56;8.40;99.90
4910;DHT22;2470;49.868;8.660;2022-11-14T06:32:21;8.40;99.90
4910;DHT22;2470;49.868;8.660;2022-11-14T06:34:47;8.40;99.90
4910;DHT22;2470;49.868;8.660;2022-11-14T06:37:12;8.50;99.90
4910;DHT22;2470;49.868;8.660;2022-11-14T06:39:38;8.50;99.90
4910;DHT22;2470;49.868;8.660;2022-11-14T06:42:04;8.50;99.90
4910;DHT22;2470;49.868;8.660;2022-11-14T06:44:29;8.50;99.90
4910;DHT22;2470;49.868;8.660;2022-11-14T06:46:55;8.50;99.90
4910;DHT22;2470;49.868;8.660;2022-11-14T06:49:21;8.50;99.90
4910;DHT22;2470;49.868;8.660;2022-11-14T06:51:49;8.50;99.90
4910;DHT22;2470;49.868;8.660;2022-11-14T06:54:15;8.50;99.90
4910;DHT22;2470;49.868;8.660;2022-11-14T06:56:41;8.60;99.90
4910;DHT22;2470;49.868;8.660;2022-11-14T06:59:07;8.60;99.90
4910;DHT22;2470;49.868;8.660;2022-11-14T07:01:33;8.60;99.90
4910;DHT22;2470;49.868;8.660;2022-11-14T07:03:58;8.60;99.90
4910;DHT22;2470;49.868;8.660;2022-11-14T07:06:26;8.60;99.90
4910;DHT22;2470;49.868;8.660;2022-11-14T07:08:52;8.60;99.90
4910;DHT22;2470;49.868;8.660;2022-11-14T07:11:21;8.60;99.90
4910;DHT22;2470;49.868;8.660;2022-11-14T07:13:55;8.60;99.90
4910;DHT22;2470;49.868;8.660;2022-11-14T07:16:26;8.60;99.90
4910;DHT22;2470;49.868;8.660;2022-11-14T07:18:54;8.60;99.90
4910;DHT22;2470;49.868;8.660;2022-11-14T07:21:20;8.60;99.90
4910;DHT22;2470;49.868;8.660;2022-11-14T07:23:46;8.60;99.90
4910;DHT22;2470;49.868;8.660;2022-11-14T07:26:11;8.50;99.90
4910;DHT22;2470;49.868;8.660;2022-11-14T07:28:41;8.50;99.90
4910;DHT22;2470;49.868;8.660;2022-11-14T07:31:10;8.60;99.90
4910;DHT22;2470;49.868;8.660;2022-11-14T07:33:37;8.60;99.90
4910;DHT22;2470;49.868;8.660;2022-11-14T07:36:03;8.60;99.90
4910;DHT22;2470;49.868;8.660;2022-11-14T07:38:32;8.70;99.90
4910;DHT22;2470;49.868;8.660;2022-11-14T07:40:59;8.70;99.90
4910;DHT22;2470;49.868;8.660;2022-11-14T07:43:26;8.70;99.90
4910;DHT22;2470;49.868;8.660;2022-11-14T07:45:52;8.70;99.90
4910;DHT22;2470;49.868;8.660;2022-11-14T07:48:18;8.80;99.90
4910;DHT22;2470;49.868;8.660;2022-11-14T07:50:46;8.80;99.90
4910;DHT22;2470;49.868;8.660;2022-11-14T07:53:12;8.80;99.90
4910;DHT22;2470;49.868;8.660;2022-11-14T07:55:40;8.90;99.90
4910;DHT22;2470;49.868;8.660;2022-11-14T07:58:06;8.90;99.90
4910;DHT22;2470;49.868;8.660;2022-11-14T08:00:32;8.90;99.90
4910;DHT22;2470;49.868;8.660;2022-11-14T08:02:57;8.90;99.90
4910;DHT22;2470;49.868;8.660;2022-11-14T08:05:23;8.80;99.90
4910;DHT22;2470;49.868;8.660;2022-11-14T08:07:51;8.70;99.90
4910;DHT22;2470;49.868;8.660;2022-11-14T08:10:17;8.70;99.90
4910;DHT22;2470;49.868;8.660;2022-11-14T08:12:44;8.70;99.90
4910;DHT22;2470;49.868;8.660;2022-11-14T08:15:11;8.70;99.90
4910;DHT22;2470;49.868;8.660;2022-11-14T08:17:37;8.70;99.90
4910;DHT22;2470;49.868;8.660;2022-11-14T08:20:07;8.70;99.90
4910;DHT22;2470;49.868;8.660;2022-11-14T08:22:33;8.70;99.90
4910;DHT22;2470;49.868;8.660;2022-11-14T08:25:01;8.80;99.90
4910;DHT22;2470;49.868;8.660;2022-11-14T08:27:26;8.80;99.90
4910;DHT22;2470;49.868;8.660;2022-11-14T08:29:52;8.90;99.90
4910;DHT22;2470;49.868;8.660;2022-11-14T08:32:18;8.90;99.90
4910;DHT22;2470;49.868;8.660;2022-11-14T08:34:44;9.00;99.90
4910;DHT22;2470;49.868;8.660;2022-11-14T08:37:10;9.10;99.90
4910;DHT22;2470;49.868;8.660;2022-11-14T08:39:35;9.20;99.90
4910;DHT22;2470;49.868;8.660;2022-11-14T08:42:01;9.20;99.90
4910;DHT22;2470;49.868;8.660;2022-11-14T08:44:26;9.30;99.90
4910;DHT22;2470;49.868;8.660;2022-11-14T08:46:52;9.30;99.90
4910;DHT22;2470;49.868;8.660;2022-11-14T08:49:17;9.40;99.90
4910;DHT22;2470;49.868;8.660;2022-11-14T08:51:43;9.50;99.90
4910;DHT22;2470;49.868;8.660;2022-11-14T08:54:09;9.50;99.90
4910;DHT22;2470;49.868;8.660;2022-11-14T08:56:34;9.60;99.90
4910;DHT22;2470;49.868;8.660;2022-11-14T08:59:02;9.70;99.90
4910;DHT22;2470;49.868;8.660;2022-11-14T09:01:28;9.80;99.90
4910;DHT22;2470;49.868;8.660;2022-11-14T09:03:53;9.90;99.90
4910;DHT22;2470;49.868;8.660;2022-11-14T09:06:19;10.00;99.90
4910;DHT22;2470;49.868;8.660;2022-11-14T09:08:44;10.00;99.90
4910;DHT22;2470;49.868;8.660;2022-11-14T09:11:10;10.00;99.90
4910;DHT22;2470;49.868;8.660;2022-11-14T09:13:35;10.00;99.90
4910;DHT22;2470;49.868;8.660;2022-11-14T09:16:01;10.00;99.90
4910;DHT22;2470;49.868;8.660;2022-11-14T09:18:28;10.20;99.90
4910;DHT22;2470;49.868;8.660;2022-11-14T09:21:01;10.20;99.90
4910;DHT22;2470;49.868;8.660;2022-11-14T09:23:27;10.30;99.90
4910;DHT22;2470;49.868;8.660;2022-11-14T09:25:52;10.50;99.90
4910;DHT22;2470;49.868;8.660;2022-11-14T09:28:19;10.60;99.90
4910;DHT22;2470;49.868;8.660;2022-11-14T09:30:44;10.80;99.90
4910;DHT22;2470;49.868;8.660;2022-11-14T09:33:10;10.80;99.90
4910;DHT22;2470;49.868;8.660;2022-11-14T09:35:35;10.90;99.90
4910;DHT22;2470;49.868;8.660;2022-11-14T09:38:04;11.00;99.90
4910;DHT22;2470;49.868;8.660;2022-11-14T09:40:38;10.90;99.90
4910;DHT22;2470;49.868;8.660;2022-11-14T09:43:24;10.90;99.90
4910;DHT22;2470;49.868;8.660;2022-11-14T09:45:52;11.00;99.90
4910;DHT22;2470;49.868;8.660;2022-11-14T09:48:22;10.90;99.90
4910;DHT22;2470;49.868;8.660;2022-11-14T09:51:07;10.90;99.90
4910;DHT22;2470;49.868;8.660;2022-11-14T09:53:39;10.90;99.90
4910;DHT22;2470;49.868;8.660;2022-11-14T09:56:11;10.90;99.90
4910;DHT22;2470;49.868;8.660;2022-11-14T09:58:39;10.80;99.90
4910;DHT22;2470;49.868;8.660;2022-11-14T10:01:35;10.70;99.90
4910;DHT22;2470;49.868;8.660;2022-11-14T10:04:33;10.80;99.90
4910;DHT22;2470;49.868;8.660;2022-11-14T10:10:14;10.90;99.90
4910;DHT22;2470;49.868;8.660;2022-11-14T10:15:53;11.00;99.90
4910;DHT22;2470;49.868;8.660;2022-11-14T10:32:15;11.10;99.90
4910;DHT22;2470;49.868;8.660;2022-11-14T10:37:35;11.40;99.90
4910;DHT22;2470;49.868;8.660;2022-11-14T10:40:20;11.50;99.90
4910;DHT22;2470;49.868;8.660;2022-11-14T10:42:53;11.60;99.90
4910;DHT22;2470;49.868;8.660;2022-11-14T10:45:27;11.50;99.90
4910;DHT22;2470;49.868;8.660;2022-11-14T10:47:59;11.50;99.90
4910;DHT22;2470;49.868;8.660;2022-11-14T10:50:39;11.50;99.90
4910;DHT22;2470;49.868;8.660;2022-11-14T10:53:27;11.40;99.90
4910;DHT22;2470;49.868;8.660;2022-11-14T10:55:54;11.40;99.90
4910;DHT22;2470;49.868;8.660;2022-11-14T10:58:20;11.30;99.90
4910;DHT22;2470;49.868;8.660;2022-11-14T11:00:46;11.30;99.90
4910;DHT22;2470;49.868;8.660;2022-11-14T11:03:11;11.30;99.90
4910;DHT22;2470;49.868;8.660;2022-11-14T11:05:49;11.30;99.90
4910;DHT22;2470;49.868;8.660;2022-11-14T11:08:20;11.40;99.90
4910;DHT22;2470;49.868;8.660;2022-11-14T11:11:11;11.40;99.90
4910;DHT22;2470;49.868;8.660;2022-11-14T11:13:57;11.50;99.90
4910;DHT22;2470;49.868;8.660;2022-11-14T11:16:25;11.60;99.90
4910;DHT22;2470;49.868;8.660;2022-11-14T11:18:51;11.60;99.90
4910;DHT22;2470;49.868;8.660;2022-11-14T11:21:19;11.60;99.90
4910;DHT22;2470;49.868;8.660;2022-11-14T11:23:56;11.60;99.90
4910;DHT22;2470;49.868;8.660;2022-11-14T11:29:13;11.60;99.90
4910;DHT22;2470;49.868;8.660;2022-11-14T11:31:53;11.60;99.90
4910;DHT22;2470;49.868;8.660;2022-11-14T11:34:24;11.70;99.90
4910;DHT22;2470;49.868;8.660;2022-11-14T11:37:09;11.70;99.90
4910;DHT22;2470;49.868;8.660;2022-11-14T11:39:46;11.80;99.90
4910;DHT22;2470;49.868;8.660;2022-11-14T11:42:21;11.80;99.90
4910;DHT22;2470;49.868;8.660;2022-11-14T11:44:49;11.90;99.90
4910;DHT22;2470;49.868;8.660;2022-11-14T11:47:20;11.90;99.90
4910;DHT22;2470;49.868;8.660;2022-11-14T11:49:48;11.90;99.90
4910;DHT22;2470;49.868;8.660;2022-11-14T11:55:19;12.10;99.90
4910;DHT22;2470;49.868;8.660;2022-11-14T11:57:50;12.70;99.90
4910;DHT22;2470;49.868;8.660;2022-11-14T12:00:20;13.40;99.90
4910;DHT22;2470;49.868;8.660;2022-11-14T12:02:48;13.80;99.90
4910;DHT22;2470;49.868;8.660;2022-11-14T12:08:20;13.70;99.90
4910;DHT22;2470;49.868;8.660;2022-11-14T12:10:48;13.60;99.90
4910;DHT22;2470;49.868;8.660;2022-11-14T12:27:21;12.70;99.90
4910;DHT22;2470;49.868;8.660;2022-11-14T12:30:09;12.60;99.90
4910;DHT22;2470;49.868;8.660;2022-11-14T12:32:48;12.50;99.90
4910;DHT22;2470;49.868;8.660;2022-11-14T12:35:21;12.40;99.90
4910;DHT22;2470;49.868;8.660;2022-11-14T12:37:49;12.30;99.90
4910;DHT22;2470;49.868;8.660;2022-11-14T12:40:32;12.30;99.90
4910;DHT22;2470;49.868;8.660;2022-11-14T12:42:59;12.20;99.90
4910;DHT22;2470;49.868;8.660;2022-11-14T12:50:41;12.00;99.90
4910;DHT22;2470;49.868;8.660;2022-11-14T12:59:05;12.00;99.90
4910;DHT22;2470;49.868;8.660;2022-11-14T13:04:45;12.00;99.90
4910;DHT22;2470;49.868;8.660;2022-11-14T13:07:28;12.00;99.90
4910;DHT22;2470;49.868;8.660;2022-11-14T13:12:55;12.00;99.90
4910;DHT22;2470;49.868;8.660;2022-11-14T13:15:51;12.00;99.90
4910;DHT22;2470;49.868;8.660;2022-11-14T13:18:48;12.10;99.90
4910;DHT22;2470;49.868;8.660;2022-11-14T13:21:33;12.00;99.90
4910;DHT22;2470;49.868;8.660;2022-11-14T13:24:14;12.00;99.90
4910;DHT22;2470;49.868;8.660;2022-11-14T13:26:44;12.10;99.90
4910;DHT22;2470;49.868;8.660;2022-11-14T13:32:00;12.10;99.90
4910;DHT22;2470;49.868;8.660;2022-11-14T13:34:49;12.20;99.90
4910;DHT22;2470;49.868;8.660;2022-11-14T13:37:58;12.20;99.90
4910;DHT22;2470;49.868;8.660;2022-11-14T13:43:30;12.30;99.90
4910;DHT22;2470;49.868;8.660;2022-11-14T13:51:27;12.30;99.90
4910;DHT22;2470;49.868;8.660;2022-11-14T13:53:53;12.30;99.90
4910;DHT22;2470;49.868;8.660;2022-11-14T14:00:08;12.20;99.90
4910;DHT22;2470;49.868;8.660;2022-11-14T14:03:13;12.20;99.90
4910;DHT22;2470;49.868;8.660;2022-11-14T14:14:30;12.40;99.90
4910;DHT22;2470;49.868;8.660;2022-11-14T14:17:25;12.40;99.90
4910;DHT22;2470;49.868;8.660;2022-11-14T14:20:24;12.50;99.90
4910;DHT22;2470;49.868;8.660;2022-11-14T14:23:23;12.40;99.90
4910;DHT22;2470;49.868;8.660;2022-11-14T14:25:59;12.40;99.90
4910;DHT22;2470;49.868;8.660;2022-11-14T14:29:15;12.40;99.90
4910;DHT22;2470;49.868;8.660;2022-11-14T14:31:46;12.40;99.90
4910;DHT22;2470;49.868;8.660;2022-11-14T14:34:29;12.30;99.90
4910;DHT22;2470;49.868;8.660;2022-11-14T14:36:56;12.30;99.90
4910;DHT22;2470;49.868;8.660;2022-11-14T14:39:27;12.30;99.90
4910;DHT22;2470;49.868;8.660;2022-11-14T14:41:55;12.30;99.90
4910;DHT22;2470;49.868;8.660;2022-11-14T14:46:51;12.30;99.90
4910;DHT22;2470;49.868;8.660;2022-11-14T14:51:48;12.10;99.90
4910;DHT22;2470;49.868;8.660;2022-11-14T14:54:23;12.00;99.90
4910;DHT22;2470;49.868;8.660;2022-11-14T14:56:59;12.00;99.90
4910;DHT22;2470;49.868;8.660;2022-11-14T14:59:26;11.90;99.90
4910;DHT22;2470;49.868;8.660;2022-11-14T15:01:52;11.80;99.90
4910;DHT22;2470;49.868;8.660;2022-11-14T15:04:21;11.70;99.90
4910;DHT22;2470;49.868;8.660;2022-11-14T15:06:48;11.70;99.90
4910;DHT22;2470;49.868;8.660;2022-11-14T15:09:19;11.70;99.90
4910;DHT22;2470;49.868;8.660;2022-11-14T15:11:50;11.60;99.90
4910;DHT22;2470;49.868;8.660;2022-11-14T15:14:24;11.70;99.90
4910;DHT22;2470;49.868;8.660;2022-11-14T15:16:51;11.70;99.90
4910;DHT22;2470;49.868;8.660;2022-11-14T15:19:22;11.60;99.90
4910;DHT22;2470;49.868;8.660;2022-11-14T15:22:24;11.60;99.90
4910;DHT22;2470;49.868;8.660;2022-11-14T15:25:17;11.50;99.90
4910;DHT22;2470;49.868;8.660;2022-11-14T15:27:46;11.40;99.90
4910;DHT22;2470;49.868;8.660;2022-11-14T15:30:24;11.40;99.90
4910;DHT22;2470;49.868;8.660;2022-11-14T15:32:56;11.40;99.90
4910;DHT22;2470;49.868;8.660;2022-11-14T15:38:21;11.40;99.90
4910;DHT22;2470;49.868;8.660;2022-11-14T15:41:19;11.40;99.90
4910;DHT22;2470;49.868;8.660;2022-11-14T15:43:47;11.40;99.90
4910;DHT22;2470;49.868;8.660;2022-11-14T15:48:49;11.40;99.90
4910;DHT22;2470;49.868;8.660;2022-11-14T15:51:14;11.30;99.90
4910;DHT22;2470;49.868;8.660;2022-11-14T15:53:44;11.30;99.90
4910;DHT22;2470;49.868;8.660;2022-11-14T15:56:12;11.30;99.90
4910;DHT22;2470;49.868;8.660;2022-11-14T15:58:41;11.30;99.90
4910;DHT22;2470;49.868;8.660;2022-11-14T16:01:12;11.30;99.90
4910;DHT22;2470;49.868;8.660;2022-11-14T16:03:44;11.20;99.90
4910;DHT22;2470;49.868;8.660;2022-11-14T16:06:12;11.30;99.90
4910;DHT22;2470;49.868;8.660;2022-11-14T16:08:38;11.30;99.90
4910;DHT22;2470;49.868;8.660;2022-11-14T16:11:03;11.30;99.90
4910;DHT22;2470;49.868;8.660;2022-11-14T16:13:29;11.30;99.90
4910;DHT22;2470;49.868;8.660;2022-11-14T16:15:54;11.30;99.90
4910;DHT22;2470;49.868;8.660;2022-11-14T16:18:20;11.30;99.90
4910;DHT22;2470;49.868;8.660;2022-11-14T16:20:50;11.30;99.90
4910;DHT22;2470;49.868;8.660;2022-11-14T16:23:16;11.30;99.90
4910;DHT22;2470;49.868;8.660;2022-11-14T16:25:41;11.40;99.90
4910;DHT22;2470;49.868;8.660;2022-11-14T16:28:07;11.40;99.90
4910;DHT22;2470;49.868;8.660;2022-11-14T16:30:32;11.40;99.90
4910;DHT22;2470;49.868;8.660;2022-11-14T16:32:58;11.50;99.90
4910;DHT22;2470;49.868;8.660;2022-11-14T16:35:25;11.60;99.90
4910;DHT22;2470;49.868;8.660;2022-11-14T16:37:53;11.60;99.90
4910;DHT22;2470;49.868;8.660;2022-11-14T16:40:26;11.70;99.90
4910;DHT22;2470;49.868;8.660;2022-11-14T16:42:56;11.80;99.90
4910;DHT22;2470;49.868;8.660;2022-11-14T16:45:23;11.80;99.90
4910;DHT22;2470;49.868;8.660;2022-11-14T16:47:49;11.90;99.90
4910;DHT22;2470;49.868;8.660;2022-11-14T16:50:16;12.00;99.90
4910;DHT22;2470;49.868;8.660;2022-11-14T16:52:42;12.00;99.90
4910;DHT22;2470;49.868;8.660;2022-11-14T16:55:08;12.00;99.90
4910;DHT22;2470;49.868;8.660;2022-11-14T16:57:34;12.10;99.90
4910;DHT22;2470;49.868;8.660;2022-11-14T17:00:07;12.10;99.90
4910;DHT22;2470;49.868;8.660;2022-11-14T17:02:32;12.20;99.90
4910;DHT22;2470;49.868;8.660;2022-11-14T17:04:58;12.20;99.90
4910;DHT22;2470;49.868;8.660;2022-11-14T17:07:23;12.20;99.90
4910;DHT22;2470;49.868;8.660;2022-11-14T17:09:49;12.30;99.90
4910;DHT22;2470;49.868;8.660;2022-11-14T17:12:15;12.30;99.90
4910;DHT22;2470;49.868;8.660;2022-11-14T17:14:40;12.30;99.90
4910;DHT22;2470;49.868;8.660;2022-11-14T17:17:06;12.30;99.90
4910;DHT22;2470;49.868;8.660;2022-11-14T17:19:31;12.40;99.90
4910;DHT22;2470;49.868;8.660;2022-11-14T17:21:57;12.40;99.90
4910;DHT22;2470;49.868;8.660;2022-11-14T17:24:23;12.40;99.90
4910;DHT22;2470;49.868;8.660;2022-11-14T17:26:48;12.40;99.90
4910;DHT22;2470;49.868;8.660;2022-11-14T17:29:14;12.50;99.90
4910;DHT22;2470;49.868;8.660;2022-11-14T17:31:39;12.50;99.90
4910;DHT22;2470;49.868;8.660;2022-11-14T17:34:07;12.60;99.90
4910;DHT22;2470;49.868;8.660;2022-11-14T17:36:33;12.60;99.90
4910;DHT22;2470;49.868;8.660;2022-11-14T17:38:59;12.70;99.90
4910;DHT22;2470;49.868;8.660;2022-11-14T17:41:24;12.60;99.90
4910;DHT22;2470;49.868;8.660;2022-11-14T17:43:52;12.60;99.90
4910;DHT22;2470;49.868;8.660;2022-11-14T17:46:18;12.70;99.90
4910;DHT22;2470;49.868;8.660;2022-11-14T17:48:45;12.70;99.90
4910;DHT22;2470;49.868;8.660;2022-11-14T17:51:12;12.70;99.90
4910;DHT22;2470;49.868;8.660;2022-11-14T17:53:38;12.70;99.90
4910;DHT22;2470;49.868;8.660;2022-11-14T17:56:06;12.80;99.90
4910;DHT22;2470;49.868;8.660;2022-11-14T17:58:32;12.80;99.90
4910;DHT22;2470;49.868;8.660;2022-11-14T18:00:58;12.90;99.90
4910;DHT22;2470;49.868;8.660;2022-11-14T18:03:24;12.80;99.90
4910;DHT22;2470;49.868;8.660;2022-11-14T18:05:51;12.80;99.90